Time,TemperatureF,DewpointF,PressureIn,WindDirection,WindDirectionDegrees,WindSpeedMPH,WindSpeedGustMPH,Humidity,HourlyPrecipIn,Conditions,Clouds,dailyrainin,SoftwareType,DateUTC
2013-03-12 00:02:00,44.0,41.0,-100.00,South,180,1.0,1.0,90,-99.99,,,-99.99,,2013-03-12 07:02:00,
2013-03-12 00:12:00,44.0,41.0,-100.00,South,180,1.0,1.0,90,-99.99,,,-99.99,,2013-03-12 07:12:00,
2013-03-12 00:21:00,45.0,42.0,-100.00,SW,225,0.0,1.0,90,-99.99,,,-99.99,,2013-03-12 07:21:00,
2013-03-12 00:32:00,44.0,41.0,-100.00,North,-999,0.0,0.0,90,-99.99,,,-99.99,,2013-03-12 07:32:00,
2013-03-12 00:42:00,44.0,41.0,-100.00,North,-999,0.0,0.0,90,-99.99,,,-99.99,,2013-03-12 07:42:00,
2013-03-12 00:52:00,43.0,41.0,-100.00,SW,225,1.0,1.0,90,-99.99,,,-99.99,,2013-03-12 07:52:00,
2013-03-12 01:02:00,43.0,41.0,-100.00,North,-999,0.0,0.0,90,-99.99,,,-99.99,,2013-03-12 08:02:00,
2013-03-12 01:12:00,43.0,41.0,-100.00,North,-999,0.0,0.0,90,-99.99,,,-99.99,,2013-03-12 08:12:00,
2013-03-12 01:22:00,43.0,40.0,-100.00,North,-999,0.0,0.0,90,-99.99,,,-99.99,,2013-03-12 08:22:00,
2013-03-12 01:32:00,43.0,40.0,-100.00,SW,225,1.0,1.0,90,-99.99,,,-99.99,,2013-03-12 08:32:00,
2013-03-12 01:52:00,43.0,40.0,-100.00,SW,225,0.0,1.0,90,-99.99,,,-99.99,,2013-03-12 08:52:00,
2013-03-12 02:02:00,43.0,40.0,-100.00,North,-999,0.0,0.0,90,-99.99,,,-99.99,,2013-03-12 09:02:00,
2013-03-12 02:11:00,43.0,40.0,-100.00,North,-999,0.0,0.0,90,-99.99,,,-99.99,,2013-03-12 09:11:00,
2013-03-12 02:22:00,42.0,39.0,-100.00,NE,45,0.0,1.0,90,-99.99,,,-99.99,,2013-03-12 09:22:00,
2013-03-12 02:32:00,42.0,39.0,-100.00,North,-999,0.0,0.0,90,-99.99,,,-99.99,,2013-03-12 09:32:00,
2013-03-12 02:42:00,42.0,39.0,-100.00,North,-999,0.0,0.0,90,-99.99,,,-99.99,,2013-03-12 09:42:00,
2013-03-12 02:52:00,42.0,39.0,-100.00,North,-999,0.0,0.0,90,-99.99,,,-99.99,,2013-03-12 09:52:00,
2013-03-12 03:02:00,42.0,39.0,-100.00,North,-999,0.0,0.0,90,-99.99,,,-99.99,,2013-03-12 10:02:00,
2013-03-12 03:12:00,42.0,39.0,-100.00,North,-999,0.0,0.0,90,-99.99,,,-99.99,,2013-03-12 10:12:00,
2013-03-12 03:22:00,43.0,40.0,-100.00,North,0,1.0,1.0,90,-99.99,,,-99.99,,2013-03-12 10:22:00,
2013-03-12 03:32:00,42.0,39.0,-100.00,North,-999,0.0,0.0,90,-99.99,,,-99.99,,2013-03-12 10:32:00,
2013-03-12 03:42:00,42.0,39.0,-100.00,North,-999,0.0,0.0,90,-99.99,,,-99.99,,2013-03-12 10:42:00,
2013-03-12 03:52:00,41.0,39.0,-100.00,North,-999,0.0,0.0,90,-99.99,,,-99.99,,2013-03-12 10:52:00,
2013-03-12 04:02:00,41.0,38.0,-100.00,West,270,0.0,1.0,90,-99.99,,,-99.99,,2013-03-12 11:02:00,
2013-03-12 04:12:00,41.0,38.0,-100.00,West,270,0.0,1.0,90,-99.99,,,-99.99,,2013-03-12 11:12:00,
2013-03-12 04:22:00,40.0,37.0,-100.00,North,-999,0.0,0.0,90,-99.99,,,-99.99,,2013-03-12 11:22:00,
2013-03-12 04:32:00,40.0,37.0,-100.00,NE,45,1.0,1.0,90,-99.99,,,-99.99,,2013-03-12 11:32:00,
2013-03-12 04:42:00,40.0,37.0,-100.00,NE,45,1.0,1.0,90,-99.99,,,-99.99,,2013-03-12 11:42:00,
2013-03-12 04:52:00,40.0,37.0,-100.00,NE,45,1.0,1.0,90,-99.99,,,-99.99,,2013-03-12 11:52:00,
2013-03-12 05:02:00,41.0,38.0,-100.00,East,90,0.0,1.0,90,-99.99,,,-99.99,,2013-03-12 12:02:00,
2013-03-12 05:12:00,41.0,38.0,-100.00,East,90,0.0,1.0,90,-99.99,,,-99.99,,2013-03-12 12:12:00,
2013-03-12 05:22:00,42.0,39.0,-100.00,NE,45,1.0,1.0,90,-99.99,,,-99.99,,2013-03-12 12:22:00,
2013-03-12 05:32:00,42.0,39.0,-100.00,North,-999,0.0,0.0,90,-99.99,,,-99.99,,2013-03-12 12:32:00,
2013-03-12 05:42:00,42.0,39.0,-100.00,North,-999,0.0,0.0,90,-99.99,,,-99.99,,2013-03-12 12:42:00,
2013-03-12 05:52:00,42.0,39.0,-100.00,North,-999,0.0,0.0,90,-99.99,,,-99.99,,2013-03-12 12:52:00,
2013-03-12 06:02:00,43.0,40.0,-100.00,NE,45,0.0,1.0,90,-99.99,,,-99.99,,2013-03-12 13:02:00,
2013-03-12 06:12:00,43.0,40.0,-100.00,NE,45,0.0,1.0,90,-99.99,,,-99.99,,2013-03-12 13:12:00,
2013-03-12 06:22:00,44.0,41.0,-100.00,South,180,0.0,1.0,90,-99.99,,,-99.99,,2013-03-12 13:22:00,
2013-03-12 06:32:00,44.0,41.0,-100.00,South,180,1.0,1.0,90,-99.99,,,-99.99,,2013-03-12 13:32:00,
2013-03-12 06:42:00,44.0,41.0,-100.00,South,180,1.0,1.0,90,-99.99,,,-99.99,,2013-03-12 13:42:00,
2013-03-12 06:52:00,44.0,42.0,-100.00,South,180,2.0,2.0,90,-99.99,,,-99.99,,2013-03-12 13:52:00,
2013-03-12 07:02:00,46.0,43.0,-100.00,SW,225,2.0,3.0,90,-99.99,,,-99.99,,2013-03-12 14:02:00,
2013-03-12 07:12:00,46.0,43.0,-100.00,SW,225,2.0,3.0,90,-99.99,,,-99.99,,2013-03-12 14:12:00,
2013-03-12 07:22:00,46.0,43.0,-100.00,SW,225,4.0,6.0,90,-99.99,,,-99.99,,2013-03-12 14:22:00,
2013-03-12 07:32:00,46.0,43.0,-100.00,South,180,3.0,4.0,90,-99.99,,,-99.99,,2013-03-12 14:32:00,
2013-03-12 07:42:00,46.0,43.0,-100.00,South,180,3.0,4.0,90,-99.99,,,-99.99,,2013-03-12 14:42:00,
2013-03-12 07:53:00,46.0,43.0,-100.00,SW,225,2.0,3.0,90,-99.99,,,-99.99,,2013-03-12 14:53:00,
2013-03-12 08:02:00,46.0,43.0,-100.00,South,180,1.0,2.0,90,-99.99,,,-99.99,,2013-03-12 15:02:00,
2013-03-12 08:12:00,46.0,43.0,-100.00,South,180,1.0,2.0,90,-99.99,,,-99.99,,2013-03-12 15:12:00,
2013-03-12 08:22:00,47.0,44.0,-100.00,South,180,3.0,4.0,90,-99.99,,,-99.99,,2013-03-12 15:22:00,
2013-03-12 08:32:00,47.0,44.0,-100.00,SW,225,3.0,4.0,90,-99.99,,,-99.99,,2013-03-12 15:32:00,
2013-03-12 08:42:00,47.0,44.0,-100.00,SW,225,3.0,4.0,90,-99.99,,,-99.99,,2013-03-12 15:42:00,
2013-03-12 08:53:00,47.0,44.0,-100.00,SW,225,2.0,3.0,90,-99.99,,,-99.99,,2013-03-12 15:53:00,
2013-03-12 09:02:00,47.0,44.0,-100.00,SW,225,2.0,3.0,90,-99.99,,,-99.99,,2013-03-12 16:02:00,
2013-03-12 09:12:00,47.0,44.0,-100.00,SW,225,2.0,3.0,90,-99.99,,,-99.99,,2013-03-12 16:12:00,
2013-03-12 09:22:00,48.0,45.0,-100.00,SW,225,3.0,4.0,90,-99.99,,,-99.99,,2013-03-12 16:22:00,
2013-03-12 09:32:00,48.0,45.0,-100.00,South,180,3.0,4.0,90,-99.99,,,-99.99,,2013-03-12 16:32:00,
2013-03-12 09:42:00,48.0,45.0,-100.00,South,180,3.0,4.0,90,-99.99,,,-99.99,,2013-03-12 16:42:00,
2013-03-12 09:52:00,48.0,45.0,-100.00,South,180,3.0,4.0,90,-99.99,,,-99.99,,2013-03-12 16:52:00,
2013-03-12 10:02:00,48.0,45.0,-100.00,South,180,3.0,6.0,90,-99.99,,,-99.99,,2013-03-12 17:02:00,
2013-03-12 10:12:00,48.0,45.0,-100.00,South,180,3.0,6.0,90,-99.99,,,-99.99,,2013-03-12 17:12:00,
2013-03-12 10:22:00,48.0,45.0,-100.00,South,180,4.0,6.0,90,-99.99,,,-99.99,,2013-03-12 17:22:00,
2013-03-12 10:33:00,49.0,46.0,-100.00,South,180,1.0,3.0,90,-99.99,,,-99.99,,2013-03-12 17:33:00,
2013-03-12 10:43:00,49.0,46.0,-100.00,South,180,1.0,3.0,90,-99.99,,,-99.99,,2013-03-12 17:43:00,
2013-03-12 10:53:00,49.0,46.0,-100.00,South,180,4.0,5.0,90,-99.99,,,-99.99,,2013-03-12 17:53:00,
2013-03-12 11:02:00,50.0,47.0,-100.00,SW,225,3.0,6.0,90,-99.99,,,-99.99,,2013-03-12 18:02:00,
2013-03-12 11:12:00,50.0,47.0,-100.00,SW,225,3.0,6.0,90,-99.99,,,-99.99,,2013-03-12 18:12:00,
2013-03-12 11:22:00,51.0,48.0,-100.00,South,180,6.0,8.0,89,-99.99,,,-99.99,,2013-03-12 18:22:00,
2013-03-12 11:32:00,52.0,47.0,-100.00,SW,225,5.0,7.0,84,-99.99,,,-99.99,,2013-03-12 18:32:00,
2013-03-12 11:42:00,52.0,47.0,-100.00,SW,225,5.0,7.0,84,-99.99,,,-99.99,,2013-03-12 18:42:00,
2013-03-12 11:53:00,52.0,46.0,-100.00,South,180,3.0,4.0,82,-99.99,,,-99.99,,2013-03-12 18:53:00,
2013-03-12 12:03:00,52.0,46.0,-100.00,South,180,4.0,6.0,80,-99.99,,,-99.99,,2013-03-12 19:03:00,
2013-03-12 12:12:00,52.0,46.0,-100.00,South,180,4.0,6.0,80,-99.99,,,-99.99,,2013-03-12 19:12:00,
2013-03-12 12:22:00,53.0,46.0,-100.00,South,180,7.0,9.0,76,-99.99,,,-99.99,,2013-03-12 19:22:00,
2013-03-12 12:32:00,52.0,45.0,-100.00,South,180,6.0,7.0,77,-99.99,,,-99.99,,2013-03-12 19:32:00,
2013-03-12 12:43:00,52.0,45.0,-100.00,South,180,6.0,7.0,77,-99.99,,,-99.99,,2013-03-12 19:43:00,
2013-03-12 12:53:00,54.0,46.0,-100.00,South,180,6.0,7.0,76,-99.99,,,-99.99,,2013-03-12 19:53:00,
2013-03-12 13:02:00,55.0,45.0,-100.00,South,180,3.0,5.0,69,-99.99,,,-99.99,,2013-03-12 20:02:00,
2013-03-12 13:12:00,55.0,45.0,-100.00,South,180,3.0,5.0,69,-99.99,,,-99.99,,2013-03-12 20:12:00,
2013-03-12 13:22:00,56.0,44.0,-100.00,South,180,3.0,5.0,65,-99.99,,,-99.99,,2013-03-12 20:22:00,
2013-03-12 13:32:00,57.0,43.0,-100.00,SW,225,5.0,6.0,60,-99.99,,,-99.99,,2013-03-12 20:32:00,
2013-03-12 13:42:00,57.0,43.0,-100.00,SW,225,5.0,6.0,60,-99.99,,,-99.99,,2013-03-12 20:42:00,
2013-03-12 13:53:00,56.0,43.0,-100.00,South,180,3.0,4.0,62,-99.99,,,-99.99,,2013-03-12 20:53:00,
2013-03-12 14:02:00,55.0,43.0,-100.00,South,180,4.0,5.0,64,-99.99,,,-99.99,,2013-03-12 21:02:00,
2013-03-12 14:12:00,55.0,43.0,-100.00,South,180,4.0,5.0,64,-99.99,,,-99.99,,2013-03-12 21:12:00,
2013-03-12 14:22:00,55.0,43.0,-100.00,SE,135,1.0,1.0,65,-99.99,,,-99.99,,2013-03-12 21:22:00,
2013-03-12 14:32:00,55.0,44.0,-100.00,SW,225,4.0,5.0,65,-99.99,,,-99.99,,2013-03-12 21:32:00,
2013-03-12 14:42:00,55.0,44.0,-100.00,SW,225,4.0,5.0,65,-99.99,,,-99.99,,2013-03-12 21:42:00,
2013-03-12 14:52:00,56.0,44.0,-100.00,SW,225,4.0,6.0,64,-99.99,,,-99.99,,2013-03-12 21:52:00,
2013-03-12 15:02:00,56.0,44.0,-100.00,SW,225,4.0,6.0,62,-99.99,,,-99.99,,2013-03-12 22:02:00,
2013-03-12 15:12:00,56.0,44.0,-100.00,SW,225,4.0,6.0,62,-99.99,,,-99.99,,2013-03-12 22:12:00,
2013-03-12 15:22:00,57.0,43.0,-100.00,South,180,6.0,8.0,59,-99.99,,,-99.99,,2013-03-12 22:22:00,
2013-03-12 15:32:00,57.0,43.0,-100.00,SE,135,2.0,3.0,59,-99.99,,,-99.99,,2013-03-12 22:32:00,
2013-03-12 15:42:00,57.0,43.0,-100.00,SE,135,2.0,3.0,59,-99.99,,,-99.99,,2013-03-12 22:42:00,
2013-03-12 15:53:00,58.0,43.0,-100.00,SW,225,1.0,1.0,57,-99.99,,,-99.99,,2013-03-12 22:53:00,
2013-03-12 16:02:00,58.0,42.0,-100.00,SW,225,5.0,7.0,56,-99.99,,,-99.99,,2013-03-12 23:02:00,
2013-03-12 16:12:00,58.0,42.0,-100.00,SW,225,5.0,7.0,56,-99.99,,,-99.99,,2013-03-12 23:12:00,
2013-03-12 16:22:00,58.0,42.0,-100.00,SW,225,4.0,5.0,55,-99.99,,,-99.99,,2013-03-12 23:22:00,
2013-03-12 16:34:00,59.0,42.0,-100.00,SW,225,4.0,6.0,53,-99.99,,,-99.99,,2013-03-12 23:34:00,
2013-03-12 16:43:00,59.0,42.0,-100.00,SW,225,4.0,6.0,53,-99.99,,,-99.99,,2013-03-12 23:43:00,
2013-03-12 16:52:00,59.0,41.0,-100.00,SW,225,4.0,6.0,51,-99.99,,,-99.99,,2013-03-12 23:52:00,
2013-03-12 17:02:00,59.0,41.0,-100.00,South,180,4.0,5.0,50,-99.99,,,-99.99,,2013-03-13 00:02:00,
2013-03-12 17:22:00,59.0,40.0,-100.00,SW,225,5.0,7.0,50,-99.99,,,-99.99,,2013-03-13 00:22:00,
2013-03-12 17:33:00,59.0,40.0,-100.00,South,180,5.0,8.0,50,-99.99,,,-99.99,,2013-03-13 00:33:00,
2013-03-12 17:42:00,59.0,40.0,-100.00,South,180,5.0,8.0,50,-99.99,,,-99.99,,2013-03-13 00:42:00,
2013-03-12 17:53:00,59.0,41.0,-100.00,SW,225,4.0,5.0,50,-99.99,,,-99.99,,2013-03-13 00:53:00,
2013-03-12 18:02:00,59.0,40.0,-100.00,SW,225,4.0,6.0,50,-99.99,,,-99.99,,2013-03-13 01:02:00,
2013-03-12 18:22:00,58.0,40.0,-100.00,SW,225,2.0,3.0,51,-99.99,,,-99.99,,2013-03-13 01:22:00,
2013-03-12 18:32:00,58.0,41.0,-100.00,SW,225,3.0,4.0,52,-99.99,,,-99.99,,2013-03-13 01:32:00,
2013-03-12 18:42:00,58.0,41.0,-100.00,SW,225,3.0,4.0,52,-99.99,,,-99.99,,2013-03-13 01:42:00,
2013-03-12 18:52:00,57.0,41.0,-100.00,SW,225,3.0,5.0,55,-99.99,,,-99.99,,2013-03-13 01:52:00,
2013-03-12 19:02:00,56.0,43.0,-100.00,SE,135,1.0,1.0,61,-99.99,,,-99.99,,2013-03-13 02:02:00,
2013-03-12 19:12:00,56.0,43.0,-100.00,SE,135,1.0,1.0,61,-99.99,,,-99.99,,2013-03-13 02:12:00,
2013-03-12 19:22:00,55.0,44.0,-100.00,North,-999,0.0,0.0,66,-99.99,,,-99.99,,2013-03-13 02:22:00,
2013-03-12 19:32:00,54.0,45.0,-100.00,East,90,1.0,1.0,71,-99.99,,,-99.99,,2013-03-13 02:32:00,
2013-03-12 19:42:00,54.0,45.0,-100.00,East,90,1.0,1.0,71,-99.99,,,-99.99,,2013-03-13 02:42:00,
2013-03-12 19:52:00,53.0,45.0,-100.00,North,-999,0.0,0.0,74,-99.99,,,-99.99,,2013-03-13 02:52:00,
2013-03-12 20:01:00,52.0,45.0,-100.00,North,-999,0.0,0.0,77,-99.99,,,-99.99,,2013-03-13 03:01:00,
2013-03-12 20:12:00,52.0,45.0,-100.00,North,-999,0.0,0.0,77,-99.99,,,-99.99,,2013-03-13 03:12:00,
2013-03-12 20:22:00,51.0,45.0,-100.00,North,-999,0.0,0.0,79,-99.99,,,-99.99,,2013-03-13 03:22:00,
2013-03-12 20:32:00,50.0,44.0,-100.00,East,90,1.0,1.0,81,-99.99,,,-99.99,,2013-03-13 03:32:00,
2013-03-12 20:42:00,50.0,44.0,-100.00,East,90,1.0,1.0,81,-99.99,,,-99.99,,2013-03-13 03:42:00,
2013-03-12 20:52:00,49.0,44.0,-100.00,North,-999,0.0,0.0,83,-99.99,,,-99.99,,2013-03-13 03:52:00,
2013-03-12 21:02:00,48.0,44.0,-100.00,South,180,1.0,2.0,84,-99.99,,,-99.99,,2013-03-13 04:02:00,
2013-03-12 21:12:00,48.0,44.0,-100.00,South,180,1.0,2.0,84,-99.99,,,-99.99,,2013-03-13 04:12:00,
2013-03-12 21:22:00,48.0,44.0,-100.00,South,180,0.0,1.0,85,-99.99,,,-99.99,,2013-03-13 04:22:00,
2013-03-12 21:32:00,48.0,43.0,-100.00,North,-999,0.0,0.0,85,-99.99,,,-99.99,,2013-03-13 04:32:00,
2013-03-12 21:42:00,48.0,43.0,-100.00,North,-999,0.0,0.0,85,-99.99,,,-99.99,,2013-03-13 04:42:00,
2013-03-12 21:53:00,47.0,43.0,-100.00,North,-999,0.0,0.0,85,-99.99,,,-99.99,,2013-03-13 04:53:00,
2013-03-12 22:02:00,47.0,43.0,-100.00,North,-999,0.0,0.0,85,-99.99,,,-99.99,,2013-03-13 05:02:00,
2013-03-12 22:12:00,47.0,43.0,-100.00,North,-999,0.0,0.0,85,-99.99,,,-99.99,,2013-03-13 05:12:00,
2013-03-12 22:22:00,46.0,42.0,-100.00,SW,225,1.0,2.0,85,-99.99,,,-99.99,,2013-03-13 05:22:00,
2013-03-12 22:32:00,46.0,42.0,-100.00,SW,225,3.0,3.0,86,-99.99,,,-99.99,,2013-03-13 05:32:00,
2013-03-12 22:42:00,46.0,42.0,-100.00,SW,225,3.0,3.0,86,-99.99,,,-99.99,,2013-03-13 05:42:00,
2013-03-12 22:52:00,47.0,43.0,-100.00,South,180,1.0,2.0,86,-99.99,,,-99.99,,2013-03-13 05:52:00,
2013-03-12 23:02:00,47.0,43.0,-100.00,North,-999,0.0,0.0,85,-99.99,,,-99.99,,2013-03-13 06:02:00,
2013-03-12 23:12:00,47.0,43.0,-100.00,North,-999,0.0,0.0,85,-99.99,,,-99.99,,2013-03-13 06:12:00,
2013-03-12 23:22:00,47.0,43.0,-100.00,South,180,1.0,1.0,85,-99.99,,,-99.99,,2013-03-13 06:22:00,
2013-03-12 23:32:00,47.0,43.0,-100.00,SW,225,1.0,1.0,85,-99.99,,,-99.99,,2013-03-13 06:32:00,
2013-03-12 23:42:00,47.0,43.0,-100.00,SW,225,1.0,1.0,85,-99.99,,,-99.99,,2013-03-13 06:42:00,
2013-03-12 23:52:00,47.0,43.0,-100.00,North,-999,0.0,0.0,85,-99.99,,,-99.99,,2013-03-13 06:52:00,